sensor_id;sensor_type;location;lat;lon;timestamp;P1;durP1;ratioP1;P2;durP2;ratioP2
29414;SDS011;20303;48.302;11.914;2023-10-13T00:06:03;9.65;;;8.23;;
29414;SDS011;20303;48.302;11.914;2023-10-13T00:16:06;9.05;;;8.15;;
29414;SDS011;20303;48.302;11.914;2023-10-13T00:26:09;9.38;;;7.97;;
29414;SDS011;20303;48.302;11.914;2023-10-13T00:36:11;9.27;;;8.23;;
29414;SDS011;20303;48.302;11.914;2023-10-13T00:46:19;8.70;;;7.80;;
29414;SDS011;20303;48.302;11.914;2023-10-13T00:56:20;8.73;;;7.60;;
29414;SDS011;20303;48.302;11.914;2023-10-13T01:06:27;8.77;;;7.43;;
29414;SDS011;20303;48.302;11.914;2023-10-13T01:16:29;8.25;;;7.45;;
29414;SDS011;20303;48.302;11.914;2023-10-13T01:26:30;8.10;;;7.30;;
29414;SDS011;20303;48.302;11.914;2023-10-13T01:36:33;9.48;;;7.40;;
29414;SDS011;20303;48.302;11.914;2023-10-13T01:46:36;8.43;;;7.53;;
29414;SDS011;20303;48.302;11.914;2023-10-13T01:56:38;8.38;;;7.00;;
29414;SDS011;20303;48.302;11.914;2023-10-13T02:06:45;7.35;;;6.65;;
29414;SDS011;20303;48.302;11.914;2023-10-13T02:16:46;7.78;;;6.72;;
29414;SDS011;20303;48.302;11.914;2023-10-13T02:26:47;7.45;;;6.75;;
29414;SDS011;20303;48.302;11.914;2023-10-13T02:36:48;8.38;;;6.45;;
29414;SDS011;20303;48.302;11.914;2023-10-13T02:46:49;6.97;;;6.28;;
29414;SDS011;20303;48.302;11.914;2023-10-13T02:56:50;7.10;;;6.40;;
29414;SDS011;20303;48.302;11.914;2023-10-13T03:06:57;7.00;;;6.30;;
29414;SDS011;20303;48.302;11.914;2023-10-13T03:17:00;6.75;;;6.13;;
29414;SDS011;20303;48.302;11.914;2023-10-13T03:27:06;6.90;;;6.20;;
29414;SDS011;20303;48.302;11.914;2023-10-13T03:37:11;6.82;;;5.90;;
29414;SDS011;20303;48.302;11.914;2023-10-13T03:47:18;8.15;;;5.88;;
29414;SDS011;20303;48.302;11.914;2023-10-13T03:57:26;7.55;;;6.00;;
29414;SDS011;20303;48.302;11.914;2023-10-13T04:07:27;6.68;;;5.88;;
29414;SDS011;20303;48.302;11.914;2023-10-13T04:17:57;5.97;;;5.37;;
29414;SDS011;20303;48.302;11.914;2023-10-13T04:27:59;6.68;;;5.43;;
29414;SDS011;20303;48.302;11.914;2023-10-13T04:38:12;6.75;;;5.43;;
29414;SDS011;20303;48.302;11.914;2023-10-13T04:48:20;6.72;;;5.35;;
29414;SDS011;20303;48.302;11.914;2023-10-13T04:58:23;6.80;;;5.38;;
29414;SDS011;20303;48.302;11.914;2023-10-13T05:08:33;6.50;;;5.13;;
29414;SDS011;20303;48.302;11.914;2023-10-13T05:18:53;5.32;;;4.80;;
29414;SDS011;20303;48.302;11.914;2023-10-13T05:29:13;6.93;;;5.22;;
29414;SDS011;20303;48.302;11.914;2023-10-13T05:39:32;5.53;;;4.50;;
29414;SDS011;20303;48.302;11.914;2023-10-13T05:49:52;5.80;;;4.78;;
29414;SDS011;20303;48.302;11.914;2023-10-13T06:00:05;5.38;;;4.43;;
29414;SDS011;20303;48.302;11.914;2023-10-13T06:10:32;5.20;;;3.97;;
29414;SDS011;20303;48.302;11.914;2023-10-13T06:20:52;6.10;;;4.30;;
29414;SDS011;20303;48.302;11.914;2023-10-13T06:31:12;7.00;;;3.97;;
29414;SDS011;20303;48.302;11.914;2023-10-13T06:51:32;5.43;;;4.10;;
29414;SDS011;20303;48.302;11.914;2023-10-13T07:01:37;9.57;;;4.95;;
29414;SDS011;20303;48.302;11.914;2023-10-13T07:11:39;6.90;;;4.28;;
29414;SDS011;20303;48.302;11.914;2023-10-13T07:21:46;9.27;;;4.05;;
29414;SDS011;20303;48.302;11.914;2023-10-13T07:31:47;8.50;;;4.07;;
29414;SDS011;20303;48.302;11.914;2023-10-13T07:41:48;6.47;;;3.72;;
29414;SDS011;20303;48.302;11.914;2023-10-13T07:52:05;4.97;;;3.90;;
29414;SDS011;20303;48.302;11.914;2023-10-13T08:02:18;5.97;;;3.85;;
29414;SDS011;20303;48.302;11.914;2023-10-13T08:12:38;7.13;;;3.85;;
29414;SDS011;20303;48.302;11.914;2023-10-13T08:22:41;5.55;;;3.60;;
29414;SDS011;20303;48.302;11.914;2023-10-13T08:32:48;5.80;;;3.42;;
29414;SDS011;20303;48.302;11.914;2023-10-13T08:42:57;4.88;;;3.45;;
29414;SDS011;20303;48.302;11.914;2023-10-13T08:53:04;6.45;;;3.70;;
29414;SDS011;20303;48.302;11.914;2023-10-13T09:03:26;5.30;;;3.47;;
29414;SDS011;20303;48.302;11.914;2023-10-13T09:13:38;5.78;;;3.30;;
29414;SDS011;20303;48.302;11.914;2023-10-13T09:23:46;6.10;;;3.45;;
29414;SDS011;20303;48.302;11.914;2023-10-13T09:33:48;5.70;;;3.28;;
29414;SDS011;20303;48.302;11.914;2023-10-13T09:43:55;5.38;;;3.50;;
29414;SDS011;20303;48.302;11.914;2023-10-13T09:54:00;6.53;;;3.30;;
29414;SDS011;20303;48.302;11.914;2023-10-13T10:04:10;6.30;;;3.30;;
29414;SDS011;20303;48.302;11.914;2023-10-13T10:14:28;18.15;;;3.80;;
29414;SDS011;20303;48.302;11.914;2023-10-13T10:24:42;21.85;;;6.13;;
29414;SDS011;20303;48.302;11.914;2023-10-13T10:34:44;16.92;;;3.88;;
29414;SDS011;20303;48.302;11.914;2023-10-13T10:44:45;10.23;;;3.67;;
29414;SDS011;20303;48.302;11.914;2023-10-13T10:54:58;10.88;;;3.42;;
29414;SDS011;20303;48.302;11.914;2023-10-13T11:04:59;12.48;;;3.70;;
29414;SDS011;20303;48.302;11.914;2023-10-13T11:15:02;10.60;;;3.20;;
29414;SDS011;20303;48.302;11.914;2023-10-13T11:25:26;14.93;;;3.78;;
29414;SDS011;20303;48.302;11.914;2023-10-13T11:35:30;23.45;;;5.70;;
29414;SDS011;20303;48.302;11.914;2023-10-13T11:45:49;12.20;;;3.97;;
29414;SDS011;20303;48.302;11.914;2023-10-13T11:56:12;12.75;;;3.53;;
29414;SDS011;20303;48.302;11.914;2023-10-13T12:06:13;15.13;;;3.60;;
29414;SDS011;20303;48.302;11.914;2023-10-13T12:16:22;12.50;;;3.60;;
29414;SDS011;20303;48.302;11.914;2023-10-13T12:26:34;10.60;;;3.60;;
29414;SDS011;20303;48.302;11.914;2023-10-13T12:36:38;10.32;;;3.85;;
29414;SDS011;20303;48.302;11.914;2023-10-13T12:46:53;12.27;;;3.78;;
29414;SDS011;20303;48.302;11.914;2023-10-13T12:57:14;7.27;;;3.17;;
29414;SDS011;20303;48.302;11.914;2023-10-13T13:07:15;11.60;;;3.65;;
29414;SDS011;20303;48.302;11.914;2023-10-13T13:17:16;8.88;;;3.20;;
29414;SDS011;20303;48.302;11.914;2023-10-13T13:27:17;8.43;;;3.38;;
29414;SDS011;20303;48.302;11.914;2023-10-13T13:37:20;13.15;;;3.05;;
29414;SDS011;20303;48.302;11.914;2023-10-13T13:47:21;12.10;;;3.45;;
29414;SDS011;20303;48.302;11.914;2023-10-13T13:57:22;12.02;;;3.45;;
29414;SDS011;20303;48.302;11.914;2023-10-13T14:07:24;7.85;;;3.10;;
29414;SDS011;20303;48.302;11.914;2023-10-13T14:17:25;9.35;;;3.35;;
29414;SDS011;20303;48.302;11.914;2023-10-13T14:27:29;7.75;;;3.25;;
29414;SDS011;20303;48.302;11.914;2023-10-13T14:37:30;8.32;;;3.35;;
29414;SDS011;20303;48.302;11.914;2023-10-13T14:47:31;7.95;;;3.17;;
29414;SDS011;20303;48.302;11.914;2023-10-13T14:57:32;9.73;;;3.42;;
29414;SDS011;20303;48.302;11.914;2023-10-13T15:07:37;5.05;;;2.47;;
29414;SDS011;20303;48.302;11.914;2023-10-13T15:17:43;8.82;;;3.40;;
29414;SDS011;20303;48.302;11.914;2023-10-13T15:27:50;12.43;;;3.47;;
29414;SDS011;20303;48.302;11.914;2023-10-13T15:37:57;10.90;;;3.30;;
29414;SDS011;20303;48.302;11.914;2023-10-13T15:47:58;7.53;;;3.22;;
29414;SDS011;20303;48.302;11.914;2023-10-13T15:58:04;9.13;;;3.28;;
29414;SDS011;20303;48.302;11.914;2023-10-13T16:08:08;11.35;;;3.70;;
29414;SDS011;20303;48.302;11.914;2023-10-13T16:18:12;13.43;;;3.58;;
29414;SDS011;20303;48.302;11.914;2023-10-13T16:28:13;12.00;;;4.28;;
29414;SDS011;20303;48.302;11.914;2023-10-13T16:38:14;11.05;;;3.65;;
29414;SDS011;20303;48.302;11.914;2023-10-13T16:48:16;34.45;;;8.95;;
29414;SDS011;20303;48.302;11.914;2023-10-13T16:58:17;32.83;;;6.65;;
29414;SDS011;20303;48.302;11.914;2023-10-13T17:08:18;15.88;;;4.97;;
29414;SDS011;20303;48.302;11.914;2023-10-13T17:18:19;12.95;;;4.70;;
29414;SDS011;20303;48.302;11.914;2023-10-13T17:28:20;15.32;;;4.95;;
29414;SDS011;20303;48.302;11.914;2023-10-13T17:38:22;13.68;;;4.43;;
29414;SDS011;20303;48.302;11.914;2023-10-13T17:48:24;8.57;;;4.00;;
29414;SDS011;20303;48.302;11.914;2023-10-13T17:58:25;10.48;;;4.10;;
29414;SDS011;20303;48.302;11.914;2023-10-13T18:08:27;11.63;;;4.20;;
29414;SDS011;20303;48.302;11.914;2023-10-13T18:18:28;8.98;;;3.58;;
29414;SDS011;20303;48.302;11.914;2023-10-13T18:28:30;10.82;;;4.53;;
29414;SDS011;20303;48.302;11.914;2023-10-13T18:38:35;8.60;;;3.58;;
29414;SDS011;20303;48.302;11.914;2023-10-13T18:48:37;6.47;;;3.70;;
29414;SDS011;20303;48.302;11.914;2023-10-13T18:58:41;7.55;;;3.42;;
29414;SDS011;20303;48.302;11.914;2023-10-13T19:08:43;6.28;;;3.40;;
29414;SDS011;20303;48.302;11.914;2023-10-13T19:18:45;8.23;;;3.60;;
29414;SDS011;20303;48.302;11.914;2023-10-13T19:28:46;5.38;;;3.25;;
29414;SDS011;20303;48.302;11.914;2023-10-13T19:38:48;6.15;;;3.47;;
29414;SDS011;20303;48.302;11.914;2023-10-13T19:48:53;8.02;;;3.58;;
29414;SDS011;20303;48.302;11.914;2023-10-13T19:58:54;6.97;;;3.70;;
29414;SDS011;20303;48.302;11.914;2023-10-13T20:08:55;6.55;;;3.40;;
29414;SDS011;20303;48.302;11.914;2023-10-13T20:19:12;8.70;;;3.70;;
29414;SDS011;20303;48.302;11.914;2023-10-13T20:29:16;7.22;;;3.30;;
29414;SDS011;20303;48.302;11.914;2023-10-13T20:39:17;5.90;;;3.17;;
29414;SDS011;20303;48.302;11.914;2023-10-13T20:49:27;6.25;;;3.47;;
29414;SDS011;20303;48.302;11.914;2023-10-13T20:59:28;6.30;;;3.58;;
29414;SDS011;20303;48.302;11.914;2023-10-13T21:09:29;5.57;;;3.38;;
29414;SDS011;20303;48.302;11.914;2023-10-13T21:19:31;6.32;;;3.25;;
29414;SDS011;20303;48.302;11.914;2023-10-13T21:29:36;6.28;;;3.13;;
29414;SDS011;20303;48.302;11.914;2023-10-13T21:39:37;5.68;;;3.40;;
29414;SDS011;20303;48.302;11.914;2023-10-13T21:49:38;5.50;;;3.22;;
29414;SDS011;20303;48.302;11.914;2023-10-13T21:59:40;4.70;;;3.00;;
29414;SDS011;20303;48.302;11.914;2023-10-13T22:09:41;4.78;;;2.95;;
29414;SDS011;20303;48.302;11.914;2023-10-13T22:19:46;6.40;;;3.00;;
29414;SDS011;20303;48.302;11.914;2023-10-13T22:29:50;5.00;;;2.75;;
29414;SDS011;20303;48.302;11.914;2023-10-13T22:39:52;6.85;;;3.00;;
29414;SDS011;20303;48.302;11.914;2023-10-13T22:49:53;4.40;;;3.00;;
29414;SDS011;20303;48.302;11.914;2023-10-13T22:59:54;5.05;;;3.00;;
29414;SDS011;20303;48.302;11.914;2023-10-13T23:09:55;4.65;;;2.85;;
29414;SDS011;20303;48.302;11.914;2023-10-13T23:20:00;4.32;;;2.85;;
29414;SDS011;20303;48.302;11.914;2023-10-13T23:30:10;4.85;;;2.85;;
29414;SDS011;20303;48.302;11.914;2023-10-13T23:40:13;4.38;;;2.53;;
29414;SDS011;20303;48.302;11.914;2023-10-13T23:50:22;3.58;;;2.90;;
